sensor_id;sensor_type;location;lat;lon;timestamp;P1;P2;P0
49644;PMS5003;36494;50.730;-1.932;2023-07-28T00:00:02;5;4;
49644;PMS5003;36494;50.730;-1.932;2023-07-28T00:02:27;6;6;
49644;PMS5003;36494;50.730;-1.932;2023-07-28T00:04:53;6;6;
49644;PMS5003;36494;50.730;-1.932;2023-07-28T00:07:18;3;3;
49644;PMS5003;36494;50.730;-1.932;2023-07-28T00:09:44;7;5;
49644;PMS5003;36494;50.730;-1.932;2023-07-28T00:12:09;6;6;
49644;PMS5003;36494;50.730;-1.932;2023-07-28T00:14:35;6;6;
49644;PMS5003;36494;50.730;-1.932;2023-07-28T00:17:00;6;4;
49644;PMS5003;36494;50.730;-1.932;2023-07-28T00:19:25;5;5;
49644;PMS5003;36494;50.730;-1.932;2023-07-28T00:21:51;6;6;
49644;PMS5003;36494;50.730;-1.932;2023-07-28T00:24:16;5;5;
49644;PMS5003;36494;50.730;-1.932;2023-07-28T00:26:41;4;4;
49644;PMS5003;36494;50.730;-1.932;2023-07-28T00:29:07;6;6;
49644;PMS5003;36494;50.730;-1.932;2023-07-28T00:31:32;9;9;
49644;PMS5003;36494;50.730;-1.932;2023-07-28T00:33:57;7;6;
49644;PMS5003;36494;50.730;-1.932;2023-07-28T00:36:22;7;7;
49644;PMS5003;36494;50.730;-1.932;2023-07-28T00:38:48;5;5;
49644;PMS5003;36494;50.730;-1.932;2023-07-28T00:41:14;6;5;
49644;PMS5003;36494;50.730;-1.932;2023-07-28T00:43:39;3;3;
49644;PMS5003;36494;50.730;-1.932;2023-07-28T00:46:04;6;6;
49644;PMS5003;36494;50.730;-1.932;2023-07-28T00:48:29;4;4;
49644;PMS5003;36494;50.730;-1.932;2023-07-28T00:50:54;5;5;
49644;PMS5003;36494;50.730;-1.932;2023-07-28T00:53:20;4;4;
49644;PMS5003;36494;50.730;-1.932;2023-07-28T00:55:46;6;5;
49644;PMS5003;36494;50.730;-1.932;2023-07-28T00:58:11;7;7;
49644;PMS5003;36494;50.730;-1.932;2023-07-28T01:00:36;5;5;
49644;PMS5003;36494;50.730;-1.932;2023-07-28T01:03:02;4;3;
49644;PMS5003;36494;50.730;-1.932;2023-07-28T01:05:30;7;7;
49644;PMS5003;36494;50.730;-1.932;2023-07-28T01:07:53;5;5;
49644;PMS5003;36494;50.730;-1.932;2023-07-28T01:10:17;5;5;
49644;PMS5003;36494;50.730;-1.932;2023-07-28T01:12:42;5;5;
49644;PMS5003;36494;50.730;-1.932;2023-07-28T01:15:08;6;5;
49644;PMS5003;36494;50.730;-1.932;2023-07-28T01:17:33;6;5;
49644;PMS5003;36494;50.730;-1.932;2023-07-28T01:19:58;5;4;
49644;PMS5003;36494;50.730;-1.932;2023-07-28T01:24:50;6;5;
49644;PMS5003;36494;50.730;-1.932;2023-07-28T01:27:14;5;5;
49644;PMS5003;36494;50.730;-1.932;2023-07-28T01:29:40;4;4;
49644;PMS5003;36494;50.730;-1.932;2023-07-28T01:32:05;6;6;
49644;PMS5003;36494;50.730;-1.932;2023-07-28T01:34:30;4;4;
49644;PMS5003;36494;50.730;-1.932;2023-07-28T01:36:55;5;5;
49644;PMS5003;36494;50.730;-1.932;2023-07-28T01:39:20;5;5;
49644;PMS5003;36494;50.730;-1.932;2023-07-28T01:41:46;4;4;
49644;PMS5003;36494;50.730;-1.932;2023-07-28T01:44:11;5;4;
49644;PMS5003;36494;50.730;-1.932;2023-07-28T01:46:37;5;5;
49644;PMS5003;36494;50.730;-1.932;2023-07-28T01:49:02;4;4;
49644;PMS5003;36494;50.730;-1.932;2023-07-28T01:51:27;4;4;
49644;PMS5003;36494;50.730;-1.932;2023-07-28T01:53:52;5;5;
49644;PMS5003;36494;50.730;-1.932;2023-07-28T01:56:18;4;4;
49644;PMS5003;36494;50.730;-1.932;2023-07-28T01:58:43;5;5;
49644;PMS5003;36494;50.730;-1.932;2023-07-28T02:01:08;4;4;
49644;PMS5003;36494;50.730;-1.932;2023-07-28T02:03:33;5;5;
49644;PMS5003;36494;50.730;-1.932;2023-07-28T02:06:00;6;5;
49644;PMS5003;36494;50.730;-1.932;2023-07-28T02:08:24;5;5;
49644;PMS5003;36494;50.730;-1.932;2023-07-28T02:10:50;5;5;
49644;PMS5003;36494;50.730;-1.932;2023-07-28T02:13:15;3;3;
49644;PMS5003;36494;50.730;-1.932;2023-07-28T02:15:40;4;4;
49644;PMS5003;36494;50.730;-1.932;2023-07-28T02:18:05;3;3;
49644;PMS5003;36494;50.730;-1.932;2023-07-28T02:20:31;4;4;
49644;PMS5003;36494;50.730;-1.932;2023-07-28T02:22:56;4;4;
49644;PMS5003;36494;50.730;-1.932;2023-07-28T02:25:21;3;3;
49644;PMS5003;36494;50.730;-1.932;2023-07-28T02:27:46;2;2;
49644;PMS5003;36494;50.730;-1.932;2023-07-28T02:30:12;5;4;
49644;PMS5003;36494;50.730;-1.932;2023-07-28T02:32:37;3;3;
49644;PMS5003;36494;50.730;-1.932;2023-07-28T02:35:02;2;2;
49644;PMS5003;36494;50.730;-1.932;2023-07-28T02:37:27;3;2;
49644;PMS5003;36494;50.730;-1.932;2023-07-28T02:39:53;2;2;
49644;PMS5003;36494;50.730;-1.932;2023-07-28T02:42:18;1;1;
49644;PMS5003;36494;50.730;-1.932;2023-07-28T02:44:43;2;2;
49644;PMS5003;36494;50.730;-1.932;2023-07-28T02:47:08;1;1;
49644;PMS5003;36494;50.730;-1.932;2023-07-28T02:49:33;1;1;
49644;PMS5003;36494;50.730;-1.932;2023-07-28T02:51:59;1;1;
49644;PMS5003;36494;50.730;-1.932;2023-07-28T02:54:24;1;1;
49644;PMS5003;36494;50.730;-1.932;2023-07-28T02:56:49;1;0;
49644;PMS5003;36494;50.730;-1.932;2023-07-28T02:59:14;3;3;
49644;PMS5003;36494;50.730;-1.932;2023-07-28T03:01:40;0;0;
49644;PMS5003;36494;50.730;-1.932;2023-07-28T03:04:05;1;1;
49644;PMS5003;36494;50.730;-1.932;2023-07-28T03:06:30;1;1;
49644;PMS5003;36494;50.730;-1.932;2023-07-28T03:08:55;1;1;
49644;PMS5003;36494;50.730;-1.932;2023-07-28T03:11:21;1;1;
49644;PMS5003;36494;50.730;-1.932;2023-07-28T03:13:46;2;1;
49644;PMS5003;36494;50.730;-1.932;2023-07-28T03:16:12;1;1;
49644;PMS5003;36494;50.730;-1.932;2023-07-28T03:18:37;3;3;
49644;PMS5003;36494;50.730;-1.932;2023-07-28T03:21:02;0;0;
49644;PMS5003;36494;50.730;-1.932;2023-07-28T03:23:27;2;1;
49644;PMS5003;36494;50.730;-1.932;2023-07-28T03:25:53;1;1;
49644;PMS5003;36494;50.730;-1.932;2023-07-28T03:28:18;1;1;
49644;PMS5003;36494;50.730;-1.932;2023-07-28T03:30:43;1;1;
49644;PMS5003;36494;50.730;-1.932;2023-07-28T03:33:08;1;1;
49644;PMS5003;36494;50.730;-1.932;2023-07-28T03:35:34;1;1;
49644;PMS5003;36494;50.730;-1.932;2023-07-28T03:37:59;2;2;
49644;PMS5003;36494;50.730;-1.932;2023-07-28T03:40:24;1;1;
49644;PMS5003;36494;50.730;-1.932;2023-07-28T03:42:49;2;2;
49644;PMS5003;36494;50.730;-1.932;2023-07-28T03:45:15;2;1;
49644;PMS5003;36494;50.730;-1.932;2023-07-28T03:47:40;1;1;
49644;PMS5003;36494;50.730;-1.932;2023-07-28T03:50:05;1;1;
49644;PMS5003;36494;50.730;-1.932;2023-07-28T03:52:30;1;1;
49644;PMS5003;36494;50.730;-1.932;2023-07-28T03:54:56;1;1;
49644;PMS5003;36494;50.730;-1.932;2023-07-28T03:57:21;1;1;
49644;PMS5003;36494;50.730;-1.932;2023-07-28T03:59:46;2;1;
49644;PMS5003;36494;50.730;-1.932;2023-07-28T04:02:11;1;0;
49644;PMS5003;36494;50.730;-1.932;2023-07-28T04:04:36;1;1;
49644;PMS5003;36494;50.730;-1.932;2023-07-28T04:07:02;0;0;
49644;PMS5003;36494;50.730;-1.932;2023-07-28T04:09:27;1;1;
49644;PMS5003;36494;50.730;-1.932;2023-07-28T04:11:52;0;0;
49644;PMS5003;36494;50.730;-1.932;2023-07-28T04:14:17;1;1;
49644;PMS5003;36494;50.730;-1.932;2023-07-28T04:16:43;1;1;
49644;PMS5003;36494;50.730;-1.932;2023-07-28T04:19:08;0;0;
49644;PMS5003;36494;50.730;-1.932;2023-07-28T04:21:33;1;1;
49644;PMS5003;36494;50.730;-1.932;2023-07-28T04:23:58;1;1;
49644;PMS5003;36494;50.730;-1.932;2023-07-28T04:26:24;1;1;
49644;PMS5003;36494;50.730;-1.932;2023-07-28T04:28:49;2;2;
49644;PMS5003;36494;50.730;-1.932;2023-07-28T04:31:14;1;0;
49644;PMS5003;36494;50.730;-1.932;2023-07-28T04:33:40;1;1;
49644;PMS5003;36494;50.730;-1.932;2023-07-28T04:36:05;1;1;
49644;PMS5003;36494;50.730;-1.932;2023-07-28T04:38:30;1;1;
49644;PMS5003;36494;50.730;-1.932;2023-07-28T04:40:55;1;1;
49644;PMS5003;36494;50.730;-1.932;2023-07-28T04:43:20;4;1;
49644;PMS5003;36494;50.730;-1.932;2023-07-28T04:45:46;1;1;
49644;PMS5003;36494;50.730;-1.932;2023-07-28T04:48:11;2;2;
49644;PMS5003;36494;50.730;-1.932;2023-07-28T04:50:36;2;2;
49644;PMS5003;36494;50.730;-1.932;2023-07-28T04:53:01;1;1;
49644;PMS5003;36494;50.730;-1.932;2023-07-28T04:55:27;2;2;
49644;PMS5003;36494;50.730;-1.932;2023-07-28T04:57:52;1;1;
49644;PMS5003;36494;50.730;-1.932;2023-07-28T05:00:17;1;1;
49644;PMS5003;36494;50.730;-1.932;2023-07-28T05:02:42;0;0;
49644;PMS5003;36494;50.730;-1.932;2023-07-28T05:05:08;1;1;
49644;PMS5003;36494;50.730;-1.932;2023-07-28T05:07:33;1;1;
49644;PMS5003;36494;50.730;-1.932;2023-07-28T05:09:58;1;1;
49644;PMS5003;36494;50.730;-1.932;2023-07-28T05:12:23;1;1;
49644;PMS5003;36494;50.730;-1.932;2023-07-28T05:14:49;4;3;
49644;PMS5003;36494;50.730;-1.932;2023-07-28T05:17:14;3;3;
49644;PMS5003;36494;50.730;-1.932;2023-07-28T05:19:40;1;1;
49644;PMS5003;36494;50.730;-1.932;2023-07-28T05:22:05;2;1;
49644;PMS5003;36494;50.730;-1.932;2023-07-28T05:24:30;2;2;
49644;PMS5003;36494;50.730;-1.932;2023-07-28T05:26:55;1;1;
49644;PMS5003;36494;50.730;-1.932;2023-07-28T05:29:20;4;4;
49644;PMS5003;36494;50.730;-1.932;2023-07-28T05:31:45;2;2;
49644;PMS5003;36494;50.730;-1.932;2023-07-28T05:34:11;3;2;
49644;PMS5003;36494;50.730;-1.932;2023-07-28T05:36:36;2;2;
49644;PMS5003;36494;50.730;-1.932;2023-07-28T05:39:01;2;2;
49644;PMS5003;36494;50.730;-1.932;2023-07-28T05:41:28;0;0;
49644;PMS5003;36494;50.730;-1.932;2023-07-28T05:43:52;2;1;
49644;PMS5003;36494;50.730;-1.932;2023-07-28T05:46:17;1;1;
49644;PMS5003;36494;50.730;-1.932;2023-07-28T05:48:42;1;1;
49644;PMS5003;36494;50.730;-1.932;2023-07-28T05:51:07;1;1;
49644;PMS5003;36494;50.730;-1.932;2023-07-28T05:53:33;2;2;
49644;PMS5003;36494;50.730;-1.932;2023-07-28T05:55:58;2;2;
49644;PMS5003;36494;50.730;-1.932;2023-07-28T05:58:23;2;2;
49644;PMS5003;36494;50.730;-1.932;2023-07-28T06:00:48;1;1;
49644;PMS5003;36494;50.730;-1.932;2023-07-28T06:03:14;1;1;
49644;PMS5003;36494;50.730;-1.932;2023-07-28T06:05:39;2;2;
49644;PMS5003;36494;50.730;-1.932;2023-07-28T06:08:04;1;1;
49644;PMS5003;36494;50.730;-1.932;2023-07-28T06:10:29;1;1;
49644;PMS5003;36494;50.730;-1.932;2023-07-28T06:12:55;1;1;
49644;PMS5003;36494;50.730;-1.932;2023-07-28T06:15:20;2;2;
49644;PMS5003;36494;50.730;-1.932;2023-07-28T06:17:45;0;0;
49644;PMS5003;36494;50.730;-1.932;2023-07-28T06:20:11;1;1;
49644;PMS5003;36494;50.730;-1.932;2023-07-28T06:22:35;2;2;
49644;PMS5003;36494;50.730;-1.932;2023-07-28T06:25:01;2;2;
49644;PMS5003;36494;50.730;-1.932;2023-07-28T06:27:26;2;2;
49644;PMS5003;36494;50.730;-1.932;2023-07-28T06:29:51;1;1;
49644;PMS5003;36494;50.730;-1.932;2023-07-28T06:32:16;2;2;
49644;PMS5003;36494;50.730;-1.932;2023-07-28T06:34:42;2;2;
49644;PMS5003;36494;50.730;-1.932;2023-07-28T06:37:07;3;3;
49644;PMS5003;36494;50.730;-1.932;2023-07-28T06:39:32;1;1;
49644;PMS5003;36494;50.730;-1.932;2023-07-28T06:41:57;2;2;
49644;PMS5003;36494;50.730;-1.932;2023-07-28T06:44:23;2;2;
49644;PMS5003;36494;50.730;-1.932;2023-07-28T06:46:48;3;3;
49644;PMS5003;36494;50.730;-1.932;2023-07-28T06:49:13;4;4;
49644;PMS5003;36494;50.730;-1.932;2023-07-28T06:51:38;3;3;
49644;PMS5003;36494;50.730;-1.932;2023-07-28T06:54:04;2;2;
49644;PMS5003;36494;50.730;-1.932;2023-07-28T06:56:29;5;3;
49644;PMS5003;36494;50.730;-1.932;2023-07-28T06:58:54;3;2;
49644;PMS5003;36494;50.730;-1.932;2023-07-28T07:01:19;2;2;
49644;PMS5003;36494;50.730;-1.932;2023-07-28T07:03:45;2;2;
49644;PMS5003;36494;50.730;-1.932;2023-07-28T07:06:10;3;3;
49644;PMS5003;36494;50.730;-1.932;2023-07-28T07:08:35;2;2;
49644;PMS5003;36494;50.730;-1.932;2023-07-28T07:11:00;3;2;
49644;PMS5003;36494;50.730;-1.932;2023-07-28T07:13:26;4;4;
49644;PMS5003;36494;50.730;-1.932;2023-07-28T07:15:51;4;4;
49644;PMS5003;36494;50.730;-1.932;2023-07-28T07:18:17;3;3;
49644;PMS5003;36494;50.730;-1.932;2023-07-28T07:20:42;2;2;
49644;PMS5003;36494;50.730;-1.932;2023-07-28T07:23:07;1;1;
49644;PMS5003;36494;50.730;-1.932;2023-07-28T07:25:32;2;2;
49644;PMS5003;36494;50.730;-1.932;2023-07-28T07:27:58;2;2;
49644;PMS5003;36494;50.730;-1.932;2023-07-28T07:30:23;2;2;
49644;PMS5003;36494;50.730;-1.932;2023-07-28T07:32:48;2;2;
49644;PMS5003;36494;50.730;-1.932;2023-07-28T07:35:13;2;2;
49644;PMS5003;36494;50.730;-1.932;2023-07-28T07:37:39;2;2;
49644;PMS5003;36494;50.730;-1.932;2023-07-28T07:40:04;2;2;
49644;PMS5003;36494;50.730;-1.932;2023-07-28T07:42:39;2;2;
49644;PMS5003;36494;50.730;-1.932;2023-07-28T07:44:54;1;1;
49644;PMS5003;36494;50.730;-1.932;2023-07-28T07:47:20;0;0;
49644;PMS5003;36494;50.730;-1.932;2023-07-28T07:49:45;3;3;
49644;PMS5003;36494;50.730;-1.932;2023-07-28T07:52:10;1;1;
49644;PMS5003;36494;50.730;-1.932;2023-07-28T07:54:35;1;1;
49644;PMS5003;36494;50.730;-1.932;2023-07-28T07:57:01;0;0;
49644;PMS5003;36494;50.730;-1.932;2023-07-28T07:59:26;2;2;
49644;PMS5003;36494;50.730;-1.932;2023-07-28T08:01:51;1;1;
49644;PMS5003;36494;50.730;-1.932;2023-07-28T08:04:16;2;2;
49644;PMS5003;36494;50.730;-1.932;2023-07-28T08:06:41;1;1;
49644;PMS5003;36494;50.730;-1.932;2023-07-28T08:09:07;0;0;
49644;PMS5003;36494;50.730;-1.932;2023-07-28T08:11:32;0;0;
49644;PMS5003;36494;50.730;-1.932;2023-07-28T08:13:57;0;0;
49644;PMS5003;36494;50.730;-1.932;2023-07-28T08:16:22;1;1;
49644;PMS5003;36494;50.730;-1.932;2023-07-28T08:18:48;2;1;
49644;PMS5003;36494;50.730;-1.932;2023-07-28T08:21:13;4;2;
49644;PMS5003;36494;50.730;-1.932;2023-07-28T08:23:39;2;2;
49644;PMS5003;36494;50.730;-1.932;2023-07-28T08:26:04;2;2;
49644;PMS5003;36494;50.730;-1.932;2023-07-28T08:28:29;2;2;
49644;PMS5003;36494;50.730;-1.932;2023-07-28T08:30:55;2;2;
49644;PMS5003;36494;50.730;-1.932;2023-07-28T08:33:20;2;2;
49644;PMS5003;36494;50.730;-1.932;2023-07-28T08:35:45;1;1;
49644;PMS5003;36494;50.730;-1.932;2023-07-28T08:38:10;1;1;
49644;PMS5003;36494;50.730;-1.932;2023-07-28T08:40:35;3;3;
49644;PMS5003;36494;50.730;-1.932;2023-07-28T08:43:00;2;2;
49644;PMS5003;36494;50.730;-1.932;2023-07-28T08:45:26;1;1;
49644;PMS5003;36494;50.730;-1.932;2023-07-28T08:47:51;2;1;
49644;PMS5003;36494;50.730;-1.932;2023-07-28T08:50:16;2;2;
49644;PMS5003;36494;50.730;-1.932;2023-07-28T08:52:41;1;1;
49644;PMS5003;36494;50.730;-1.932;2023-07-28T08:55:07;0;0;
49644;PMS5003;36494;50.730;-1.932;2023-07-28T08:57:32;2;2;
49644;PMS5003;36494;50.730;-1.932;2023-07-28T08:59:57;2;2;
49644;PMS5003;36494;50.730;-1.932;2023-07-28T09:02:22;1;1;
49644;PMS5003;36494;50.730;-1.932;2023-07-28T09:04:48;2;2;
49644;PMS5003;36494;50.730;-1.932;2023-07-28T09:07:13;1;1;
49644;PMS5003;36494;50.730;-1.932;2023-07-28T09:09:38;0;0;
49644;PMS5003;36494;50.730;-1.932;2023-07-28T09:12:03;0;0;
49644;PMS5003;36494;50.730;-1.932;2023-07-28T09:14:29;1;1;
49644;PMS5003;36494;50.730;-1.932;2023-07-28T09:16:53;0;0;
49644;PMS5003;36494;50.730;-1.932;2023-07-28T09:19:19;0;0;
49644;PMS5003;36494;50.730;-1.932;2023-07-28T09:21:44;1;1;
49644;PMS5003;36494;50.730;-1.932;2023-07-28T09:24:10;1;1;
49644;PMS5003;36494;50.730;-1.932;2023-07-28T09:26:38;0;0;
49644;PMS5003;36494;50.730;-1.932;2023-07-28T09:29:00;1;1;
49644;PMS5003;36494;50.730;-1.932;2023-07-28T09:31:28;2;1;
49644;PMS5003;36494;50.730;-1.932;2023-07-28T09:33:50;0;0;
49644;PMS5003;36494;50.730;-1.932;2023-07-28T09:36:16;1;1;
49644;PMS5003;36494;50.730;-1.932;2023-07-28T09:38:41;0;0;
49644;PMS5003;36494;50.730;-1.932;2023-07-28T09:41:06;1;1;
49644;PMS5003;36494;50.730;-1.932;2023-07-28T09:43:31;1;1;
49644;PMS5003;36494;50.730;-1.932;2023-07-28T09:45:56;1;1;
49644;PMS5003;36494;50.730;-1.932;2023-07-28T09:48:21;0;0;
49644;PMS5003;36494;50.730;-1.932;2023-07-28T09:50:46;1;1;
49644;PMS5003;36494;50.730;-1.932;2023-07-28T09:53:12;0;0;
49644;PMS5003;36494;50.730;-1.932;2023-07-28T09:55:38;0;0;
49644;PMS5003;36494;50.730;-1.932;2023-07-28T09:58:04;2;2;
49644;PMS5003;36494;50.730;-1.932;2023-07-28T10:00:27;1;1;
49644;PMS5003;36494;50.730;-1.932;2023-07-28T10:02:53;1;1;
49644;PMS5003;36494;50.730;-1.932;2023-07-28T10:05:18;2;2;
49644;PMS5003;36494;50.730;-1.932;2023-07-28T10:07:43;1;1;
49644;PMS5003;36494;50.730;-1.932;2023-07-28T10:10:09;0;0;
49644;PMS5003;36494;50.730;-1.932;2023-07-28T10:15:00;1;1;
49644;PMS5003;36494;50.730;-1.932;2023-07-28T10:17:24;1;1;
49644;PMS5003;36494;50.730;-1.932;2023-07-28T10:19:49;3;3;
49644;PMS5003;36494;50.730;-1.932;2023-07-28T10:22:14;4;3;
49644;PMS5003;36494;50.730;-1.932;2023-07-28T10:27:05;2;2;
49644;PMS5003;36494;50.730;-1.932;2023-07-28T10:29:30;2;2;
49644;PMS5003;36494;50.730;-1.932;2023-07-28T10:31:55;3;3;
49644;PMS5003;36494;50.730;-1.932;2023-07-28T10:34:21;2;2;
49644;PMS5003;36494;50.730;-1.932;2023-07-28T10:36:46;2;2;
49644;PMS5003;36494;50.730;-1.932;2023-07-28T10:39:12;1;1;
49644;PMS5003;36494;50.730;-1.932;2023-07-28T10:41:36;2;2;
49644;PMS5003;36494;50.730;-1.932;2023-07-28T10:44:01;1;1;
49644;PMS5003;36494;50.730;-1.932;2023-07-28T10:46:26;1;1;
49644;PMS5003;36494;50.730;-1.932;2023-07-28T10:48:52;4;4;
49644;PMS5003;36494;50.730;-1.932;2023-07-28T10:51:20;2;2;
49644;PMS5003;36494;50.730;-1.932;2023-07-28T10:53:42;1;1;
49644;PMS5003;36494;50.730;-1.932;2023-07-28T10:56:08;5;4;
49644;PMS5003;36494;50.730;-1.932;2023-07-28T10:58:33;3;3;
49644;PMS5003;36494;50.730;-1.932;2023-07-28T11:00:58;1;1;
49644;PMS5003;36494;50.730;-1.932;2023-07-28T11:03:23;2;2;
49644;PMS5003;36494;50.730;-1.932;2023-07-28T11:05:49;2;2;
49644;PMS5003;36494;50.730;-1.932;2023-07-28T11:08:14;2;2;
49644;PMS5003;36494;50.730;-1.932;2023-07-28T11:10:39;1;1;
49644;PMS5003;36494;50.730;-1.932;2023-07-28T11:13:05;2;2;
49644;PMS5003;36494;50.730;-1.932;2023-07-28T11:15:30;2;1;
49644;PMS5003;36494;50.730;-1.932;2023-07-28T11:17:55;1;1;
49644;PMS5003;36494;50.730;-1.932;2023-07-28T11:20:20;2;2;
49644;PMS5003;36494;50.730;-1.932;2023-07-28T11:22:46;3;3;
49644;PMS5003;36494;50.730;-1.932;2023-07-28T11:25:10;2;2;
49644;PMS5003;36494;50.730;-1.932;2023-07-28T11:27:36;1;1;
49644;PMS5003;36494;50.730;-1.932;2023-07-28T11:30:01;0;0;
49644;PMS5003;36494;50.730;-1.932;2023-07-28T11:32:26;0;0;
49644;PMS5003;36494;50.730;-1.932;2023-07-28T11:34:51;2;2;
49644;PMS5003;36494;50.730;-1.932;2023-07-28T11:37:16;1;1;
49644;PMS5003;36494;50.730;-1.932;2023-07-28T11:39:41;3;2;
49644;PMS5003;36494;50.730;-1.932;2023-07-28T11:42:07;2;2;
49644;PMS5003;36494;50.730;-1.932;2023-07-28T11:44:32;2;2;
49644;PMS5003;36494;50.730;-1.932;2023-07-28T11:46:57;2;2;
49644;PMS5003;36494;50.730;-1.932;2023-07-28T11:49:22;1;1;
49644;PMS5003;36494;50.730;-1.932;2023-07-28T11:51:48;0;0;
49644;PMS5003;36494;50.730;-1.932;2023-07-28T11:54:13;2;2;
49644;PMS5003;36494;50.730;-1.932;2023-07-28T11:56:38;0;0;
49644;PMS5003;36494;50.730;-1.932;2023-07-28T11:59:03;1;1;
49644;PMS5003;36494;50.730;-1.932;2023-07-28T12:01:28;2;2;
49644;PMS5003;36494;50.730;-1.932;2023-07-28T12:03:53;3;2;
49644;PMS5003;36494;50.730;-1.932;2023-07-28T12:06:19;1;1;
49644;PMS5003;36494;50.730;-1.932;2023-07-28T12:08:44;2;2;
49644;PMS5003;36494;50.730;-1.932;2023-07-28T12:11:11;2;2;
49644;PMS5003;36494;50.730;-1.932;2023-07-28T12:15:59;1;1;
49644;PMS5003;36494;50.730;-1.932;2023-07-28T12:18:29;1;1;
49644;PMS5003;36494;50.730;-1.932;2023-07-28T12:20:51;2;2;
49644;PMS5003;36494;50.730;-1.932;2023-07-28T12:23:16;1;1;
49644;PMS5003;36494;50.730;-1.932;2023-07-28T12:25:40;2;2;
49644;PMS5003;36494;50.730;-1.932;2023-07-28T12:28:05;2;2;
49644;PMS5003;36494;50.730;-1.932;2023-07-28T12:30:30;2;2;
49644;PMS5003;36494;50.730;-1.932;2023-07-28T12:32:56;1;1;
49644;PMS5003;36494;50.730;-1.932;2023-07-28T12:35:22;3;3;
49644;PMS5003;36494;50.730;-1.932;2023-07-28T12:37:46;1;1;
49644;PMS5003;36494;50.730;-1.932;2023-07-28T12:40:11;2;2;
49644;PMS5003;36494;50.730;-1.932;2023-07-28T12:42:36;0;0;
49644;PMS5003;36494;50.730;-1.932;2023-07-28T12:45:02;1;1;
49644;PMS5003;36494;50.730;-1.932;2023-07-28T12:47:27;1;1;
49644;PMS5003;36494;50.730;-1.932;2023-07-28T12:49:52;2;2;
49644;PMS5003;36494;50.730;-1.932;2023-07-28T12:52:17;3;3;
49644;PMS5003;36494;50.730;-1.932;2023-07-28T12:54:42;5;3;
49644;PMS5003;36494;50.730;-1.932;2023-07-28T12:57:08;1;1;
49644;PMS5003;36494;50.730;-1.932;2023-07-28T12:59:33;3;2;
49644;PMS5003;36494;50.730;-1.932;2023-07-28T13:01:58;4;3;
49644;PMS5003;36494;50.730;-1.932;2023-07-28T13:04:24;3;3;
49644;PMS5003;36494;50.730;-1.932;2023-07-28T13:06:49;1;1;
49644;PMS5003;36494;50.730;-1.932;2023-07-28T13:09:14;2;2;
49644;PMS5003;36494;50.730;-1.932;2023-07-28T13:11:40;4;3;
49644;PMS5003;36494;50.730;-1.932;2023-07-28T13:14:05;4;4;
49644;PMS5003;36494;50.730;-1.932;2023-07-28T13:16:30;3;2;
49644;PMS5003;36494;50.730;-1.932;2023-07-28T13:18:55;4;4;
49644;PMS5003;36494;50.730;-1.932;2023-07-28T13:21:20;4;4;
49644;PMS5003;36494;50.730;-1.932;2023-07-28T13:23:46;6;4;
49644;PMS5003;36494;50.730;-1.932;2023-07-28T13:26:11;2;2;
49644;PMS5003;36494;50.730;-1.932;2023-07-28T13:28:36;3;2;
49644;PMS5003;36494;50.730;-1.932;2023-07-28T13:31:01;3;3;
49644;PMS5003;36494;50.730;-1.932;2023-07-28T13:33:26;5;4;
49644;PMS5003;36494;50.730;-1.932;2023-07-28T13:35:52;4;4;
49644;PMS5003;36494;50.730;-1.932;2023-07-28T13:38:17;3;3;
49644;PMS5003;36494;50.730;-1.932;2023-07-28T13:40:42;4;4;
49644;PMS5003;36494;50.730;-1.932;2023-07-28T13:43:07;4;4;
49644;PMS5003;36494;50.730;-1.932;2023-07-28T13:45:32;5;5;
49644;PMS5003;36494;50.730;-1.932;2023-07-28T13:47:58;4;3;
49644;PMS5003;36494;50.730;-1.932;2023-07-28T13:50:23;2;2;
49644;PMS5003;36494;50.730;-1.932;2023-07-28T13:52:48;2;2;
49644;PMS5003;36494;50.730;-1.932;2023-07-28T13:55:13;3;3;
49644;PMS5003;36494;50.730;-1.932;2023-07-28T13:57:39;2;2;
49644;PMS5003;36494;50.730;-1.932;2023-07-28T14:00:05;3;3;
49644;PMS5003;36494;50.730;-1.932;2023-07-28T14:02:29;1;1;
49644;PMS5003;36494;50.730;-1.932;2023-07-28T14:04:55;1;1;
49644;PMS5003;36494;50.730;-1.932;2023-07-28T14:07:20;2;2;
49644;PMS5003;36494;50.730;-1.932;2023-07-28T14:09:45;1;1;
49644;PMS5003;36494;50.730;-1.932;2023-07-28T14:12:10;0;0;
49644;PMS5003;36494;50.730;-1.932;2023-07-28T14:14:35;1;1;
49644;PMS5003;36494;50.730;-1.932;2023-07-28T14:17:01;3;2;
49644;PMS5003;36494;50.730;-1.932;2023-07-28T14:19:26;2;2;
49644;PMS5003;36494;50.730;-1.932;2023-07-28T14:21:51;0;0;
49644;PMS5003;36494;50.730;-1.932;2023-07-28T14:24:16;2;2;
49644;PMS5003;36494;50.730;-1.932;2023-07-28T14:26:41;2;2;
49644;PMS5003;36494;50.730;-1.932;2023-07-28T14:29:07;1;1;
49644;PMS5003;36494;50.730;-1.932;2023-07-28T14:31:32;4;2;
49644;PMS5003;36494;50.730;-1.932;2023-07-28T14:33:57;2;2;
49644;PMS5003;36494;50.730;-1.932;2023-07-28T14:36:23;2;2;
49644;PMS5003;36494;50.730;-1.932;2023-07-28T14:38:48;3;2;
49644;PMS5003;36494;50.730;-1.932;2023-07-28T14:41:13;2;2;
49644;PMS5003;36494;50.730;-1.932;2023-07-28T14:43:38;1;1;
49644;PMS5003;36494;50.730;-1.932;2023-07-28T14:46:04;2;2;
49644;PMS5003;36494;50.730;-1.932;2023-07-28T14:48:29;1;1;
49644;PMS5003;36494;50.730;-1.932;2023-07-28T14:50:54;2;2;
49644;PMS5003;36494;50.730;-1.932;2023-07-28T14:53:28;2;2;
49644;PMS5003;36494;50.730;-1.932;2023-07-28T14:55:44;3;3;
49644;PMS5003;36494;50.730;-1.932;2023-07-28T14:58:10;0;0;
49644;PMS5003;36494;50.730;-1.932;2023-07-28T15:00:35;2;2;
49644;PMS5003;36494;50.730;-1.932;2023-07-28T15:03:00;1;1;
49644;PMS5003;36494;50.730;-1.932;2023-07-28T15:05:25;1;1;
49644;PMS5003;36494;50.730;-1.932;2023-07-28T15:07:50;1;1;
49644;PMS5003;36494;50.730;-1.932;2023-07-28T15:10:16;1;1;
49644;PMS5003;36494;50.730;-1.932;2023-07-28T15:12:41;1;1;
49644;PMS5003;36494;50.730;-1.932;2023-07-28T15:15:06;3;3;
49644;PMS5003;36494;50.730;-1.932;2023-07-28T15:17:31;1;1;
49644;PMS5003;36494;50.730;-1.932;2023-07-28T15:19:56;2;2;
49644;PMS5003;36494;50.730;-1.932;2023-07-28T15:22:22;3;3;
49644;PMS5003;36494;50.730;-1.932;2023-07-28T15:24:47;3;3;
49644;PMS5003;36494;50.730;-1.932;2023-07-28T15:27:12;2;1;
49644;PMS5003;36494;50.730;-1.932;2023-07-28T15:29:37;1;1;
49644;PMS5003;36494;50.730;-1.932;2023-07-28T15:32:03;2;2;
49644;PMS5003;36494;50.730;-1.932;2023-07-28T15:34:28;1;1;
49644;PMS5003;36494;50.730;-1.932;2023-07-28T15:36:53;2;2;
49644;PMS5003;36494;50.730;-1.932;2023-07-28T15:39:18;1;1;
49644;PMS5003;36494;50.730;-1.932;2023-07-28T15:41:43;0;0;
49644;PMS5003;36494;50.730;-1.932;2023-07-28T15:44:08;1;1;
49644;PMS5003;36494;50.730;-1.932;2023-07-28T15:46:34;1;1;
49644;PMS5003;36494;50.730;-1.932;2023-07-28T15:48:59;2;2;
49644;PMS5003;36494;50.730;-1.932;2023-07-28T15:51:24;6;6;
49644;PMS5003;36494;50.730;-1.932;2023-07-28T15:53:49;3;3;
49644;PMS5003;36494;50.730;-1.932;2023-07-28T15:56:14;2;2;
49644;PMS5003;36494;50.730;-1.932;2023-07-28T15:58:40;1;1;
49644;PMS5003;36494;50.730;-1.932;2023-07-28T16:01:05;1;1;
49644;PMS5003;36494;50.730;-1.932;2023-07-28T16:03:30;1;1;
49644;PMS5003;36494;50.730;-1.932;2023-07-28T16:05:55;1;1;
49644;PMS5003;36494;50.730;-1.932;2023-07-28T16:08:20;2;2;
49644;PMS5003;36494;50.730;-1.932;2023-07-28T16:10:46;1;1;
49644;PMS5003;36494;50.730;-1.932;2023-07-28T16:13:11;1;1;
49644;PMS5003;36494;50.730;-1.932;2023-07-28T16:15:36;1;1;
49644;PMS5003;36494;50.730;-1.932;2023-07-28T16:18:01;1;1;
49644;PMS5003;36494;50.730;-1.932;2023-07-28T16:20:26;2;2;
49644;PMS5003;36494;50.730;-1.932;2023-07-28T16:22:52;0;0;
49644;PMS5003;36494;50.730;-1.932;2023-07-28T16:25:17;2;2;
49644;PMS5003;36494;50.730;-1.932;2023-07-28T16:27:42;1;1;